Time;durP1;ratioP1;P1;durP2;ratioP2;P2;SDS_P1;SDS_P2;PMS_P1;PMS_P2;Temp;Humidity;BMP_temperature;BMP_pressure;BME280_temperature;BME280_humidity;BME280_pressure;Samples;Min_cycle;Max_cycle;Signal;HPM_P1;HPM_P2
2022/09/11 00:00:48;;;;;;;2.00;1.90;;;24.40;43.10;;;;;;6206463;23;20196;-58
2022/09/11 00:03:15;;;;;;;2.23;2.13;;;24.40;43.10;;;;;;6201772;23;20431;-58
2022/09/11 00:05:42;;;;;;;2.20;2.10;;;24.40;43.10;;;;;;6203216;23;20412;-56
2022/09/11 00:08:10;;;;;;;2.17;2.07;;;24.40;43.10;;;;;;6202148;23;20922;-58
2022/09/11 00:10:39;;;;;;;3.80;2.13;;;24.40;43.10;;;;;;6206611;23;20415;-59
2022/09/11 00:13:06;;;;;;;2.60;2.50;;;24.40;43.10;;;;;;6207134;23;20415;-58
2022/09/11 00:15:38;;;;;;;2.00;1.90;;;24.40;43.10;;;;;;6205035;23;20433;-57
2022/09/11 00:18:06;;;;;;;2.23;2.13;;;24.40;43.10;;;;;;6205881;23;20421;-58
2022/09/11 00:20:32;;;;;;;1.73;1.63;;;24.40;43.10;;;;;;6204140;23;20407;-59
2022/09/11 00:23:00;;;;;;;2.20;2.10;;;24.40;43.10;;;;;;6204878;23;20485;-58
2022/09/11 00:25:27;;;;;;;2.10;2.00;;;24.40;43.10;;;;;;6204670;23;20455;-57
2022/09/11 00:27:52;;;;;;;9.43;2.10;;;24.40;43.10;;;;;;6205369;23;20887;-59
2022/09/11 00:30:18;;;;;;;2.50;2.30;;;24.40;43.10;;;;;;6206055;23;20423;-62
2022/09/11 00:32:43;;;;;;;2.13;2.03;;;24.40;43.10;;;;;;6206608;23;20201;-59
2022/09/11 00:35:09;;;;;;;2.00;1.90;;;24.40;43.60;;;;;;6208235;23;20201;-58
2022/09/11 00:37:34;;;;;;;2.07;1.97;;;24.40;43.10;;;;;;6204634;23;20209;-61
2022/09/11 00:40:00;;;;;;;2.13;2.03;;;24.40;43.10;;;;;;6205795;23;20190;-57
2022/09/11 00:42:25;;;;;;;2.27;2.17;;;24.40;43.10;;;;;;6205445;23;20206;-58
2022/09/11 00:45:05;;;;;;;2.47;2.37;;;24.40;43.10;;;;;;6206957;23;20194;-58
2022/09/11 00:47:31;;;;;;;2.60;2.50;;;24.40;43.10;;;;;;6205021;23;20216;-60
2022/09/11 00:50:08;;;;;;;2.27;2.17;;;24.40;43.10;;;;;;6203928;23;20913;-57
2022/09/11 00:52:39;;;;;;;2.33;2.23;;;24.40;43.10;;;;;;6205102;23;20902;-60
2022/09/11 00:55:09;;;;;;;2.37;2.27;;;24.40;43.10;;;;;;6203356;23;20415;-59
2022/09/11 00:57:41;;;;;;;2.37;2.27;;;24.40;43.10;;;;;;6203089;23;20416;-58
2022/09/11 01:00:08;;;;;;;2.33;2.13;;;24.40;43.10;;;;;;6203320;23;20403;-62
2022/09/11 01:02:37;;;;;;;2.30;2.20;;;24.40;43.10;;;;;;6205549;23;20432;-58
2022/09/11 01:05:04;;;;;;;2.23;2.13;;;24.40;43.10;;;;;;6204467;23;20765;-57
2022/09/11 01:07:32;;;;;;;2.43;2.33;;;24.40;43.10;;;;;;6201573;23;20466;-59
2022/09/11 01:09:58;;;;;;;2.30;2.20;;;24.40;43.10;;;;;;6206264;23;20503;-62
2022/09/11 01:12:31;;;;;;;2.63;2.53;;;24.40;43.10;;;;;;6206501;23;20497;-59
2022/09/11 01:15:32;;;;;;;2.40;2.30;;;24.40;43.10;;;;;;6202835;23;20459;-62
2022/09/11 01:18:05;;;;;;;2.30;2.20;;;24.40;43.10;;;;;;6147753;23;20950;-58
2022/09/11 01:20:42;;;;;;;2.90;2.40;;;24.40;43.10;;;;;;6184344;23;20431;-60
2022/09/11 01:23:43;;;;;;;2.67;2.57;;;24.40;43.10;;;;;;6166363;23;20419;-60
2022/09/11 01:26:36;;;;;;;2.67;2.47;;;24.40;43.10;;;;;;6173085;23;20482;-59
2022/09/11 01:29:06;;;;;;;2.53;2.43;;;24.40;43.10;;;;;;6180869;23;20455;-60
2022/09/11 01:32:03;;;;;;;2.20;2.10;;;24.40;43.10;;;;;;6174298;23;20423;-58
2022/09/11 01:34:28;;;;;;;2.27;2.17;;;24.30;43.00;;;;;;6204403;23;20447;-58
2022/09/11 01:37:01;;;;;;;2.30;2.20;;;24.30;43.00;;;;;;6203739;23;20791;-59
2022/09/11 01:39:35;;;;;;;2.50;2.40;;;24.30;43.00;;;;;;6172854;23;20233;-58
2022/09/11 01:42:05;;;;;;;2.37;2.23;;;24.40;43.10;;;;;;6174154;23;20900;-57
2022/09/11 01:44:35;;;;;;;2.53;2.43;;;24.30;43.00;;;;;;6176005;23;20421;-59
2022/09/11 01:47:04;;;;;;;2.10;2.00;;;24.30;43.00;;;;;;6173129;23;20929;-57
2022/09/11 01:49:34;;;;;;;2.40;2.30;;;24.40;43.10;;;;;;6196119;23;20728;-58
2022/09/11 01:52:05;;;;;;;2.30;2.20;;;24.40;43.50;;;;;;6205858;23;20449;-58
2022/09/11 01:54:36;;;;;;;2.50;2.40;;;24.30;43.00;;;;;;6206063;23;20437;-59
2022/09/11 01:57:09;;;;;;;2.50;2.40;;;24.40;43.10;;;;;;6202554;23;20423;-59
2022/09/11 01:59:59;;;;;;;2.73;2.63;;;24.40;43.10;;;;;;6203816;23;20407;-58
2022/09/11 02:02:31;;;;;;;2.60;2.47;;;24.30;43.00;;;;;;6201358;23;20486;-58
2022/09/11 02:05:05;;;;;;;2.23;2.13;;;24.30;43.00;;;;;;6203801;23;20419;-59
2022/09/11 02:07:38;;;;;;;2.57;2.40;;;24.30;43.00;;;;;;6204997;23;20406;-57
2022/09/11 02:10:13;;;;;;;2.27;2.17;;;24.30;43.00;;;;;;6205449;23;20772;-58
2022/09/11 02:13:03;;;;;;;2.30;2.20;;;24.30;43.00;;;;;;6187604;23;20416;-59
2022/09/11 02:15:37;;;;;;;2.30;2.10;;;24.30;43.00;;;;;;6196104;23;20427;-58
2022/09/11 02:18:23;;;;;;;3.20;3.00;;;24.30;43.00;;;;;;6205856;23;20427;-57
2022/09/11 02:20:50;;;;;;;2.60;2.50;;;24.30;43.00;;;;;;6196151;23;20478;-59
2022/09/11 02:23:16;;;;;;;2.40;2.20;;;24.30;43.00;;;;;;6198572;23;20428;-58
2022/09/11 02:25:42;;;;;;;2.57;2.47;;;24.30;43.00;;;;;;6187005;23;20454;-58
2022/09/11 02:28:07;;;;;;;3.07;2.83;;;24.30;43.80;;;;;;6175189;23;20408;-58
2022/09/11 02:30:33;;;;;;;2.67;2.57;;;24.30;43.00;;;;;;6175018;23;20682;-57
2022/09/11 02:32:58;;;;;;;2.47;2.37;;;24.30;43.00;;;;;;6175724;23;20221;-58
2022/09/11 02:35:32;;;;;;;2.70;2.60;;;24.30;43.00;;;;;;6174910;23;20593;-59
2022/09/11 02:38:21;;;;;;;2.47;2.30;;;24.30;43.00;;;;;;6175011;23;20190;-59
2022/09/11 02:41:11;;;;;;;2.73;2.53;;;24.30;43.00;;;;;;6173268;23;20543;-61
2022/09/11 02:43:55;;;;;;;2.60;2.47;;;24.30;43.00;;;;;;6185407;23;20423;-58
2022/09/11 02:46:39;;;;;;;2.80;2.60;;;24.30;43.00;;;;;;6196516;23;20506;-58
2022/09/11 02:49:30;;;;;;;2.30;2.20;;;24.30;43.00;;;;;;6194339;23;21156;-60
2022/09/11 02:52:36;;;;;;;2.40;2.30;;;24.30;43.00;;;;;;6193300;23;20434;-61
2022/09/11 02:55:24;;;;;;;2.60;2.50;;;24.30;43.00;;;;;;6198528;23;21083;-57
2022/09/11 02:58:01;;;;;;;2.90;2.70;;;24.30;43.00;;;;;;6196944;23;20878;-58
2022/09/11 03:00:27;;;;;;;2.20;2.10;;;24.30;43.00;;;;;;6200872;23;21266;-59
2022/09/11 03:02:52;;;;;;;3.37;3.07;;;24.30;43.00;;;;;;6203055;23;20435;-58
2022/09/11 03:05:18;;;;;;;2.73;2.53;;;24.30;43.00;;;;;;6194037;23;20603;-60
2022/09/11 03:07:44;;;;;;;2.70;2.60;;;24.30;43.10;;;;;;6204671;23;20221;-59
2022/09/11 03:10:10;;;;;;;2.77;2.67;;;24.30;43.10;;;;;;6194900;23;20746;-62
2022/09/11 03:12:37;;;;;;;3.03;2.83;;;24.30;43.00;;;;;;6173865;23;20201;-57
2022/09/11 03:15:03;;;;;;;3.17;2.97;;;24.30;43.00;;;;;;6174729;23;20528;-57
2022/09/11 03:17:28;;;;;;;2.53;2.43;;;24.30;43.00;;;;;;6174028;23;20416;-59
2022/09/11 03:19:54;;;;;;;2.90;2.80;;;24.30;43.00;;;;;;6171863;23;20759;-58
2022/09/11 03:22:19;;;;;;;3.30;3.00;;;24.30;43.00;;;;;;6174413;23;20531;-59
2022/09/11 03:24:45;;;;;;;2.87;2.77;;;24.30;43.00;;;;;;6170238;23;20582;-61
2022/09/11 03:27:10;;;;;;;2.47;2.37;;;24.30;43.00;;;;;;6170607;23;20289;-58
2022/09/11 03:29:36;;;;;;;2.70;2.60;;;24.30;43.00;;;;;;6172444;23;20496;-62
2022/09/11 03:32:02;;;;;;;2.73;2.63;;;24.30;43.00;;;;;;6174516;23;20255;-57
2022/09/11 03:34:28;;;;;;;2.77;2.67;;;24.30;43.00;;;;;;6176438;23;20205;-57
2022/09/11 03:36:54;;;;;;;3.50;3.30;;;24.30;43.00;;;;;;6175845;23;20253;-60
2022/09/11 03:39:19;;;;;;;2.80;2.70;;;24.30;43.00;;;;;;6175675;23;20424;-59
2022/09/11 03:41:45;;;;;;;3.30;3.10;;;24.30;43.00;;;;;;6178226;23;20195;-58
2022/09/11 03:44:11;;;;;;;3.17;2.97;;;24.30;43.00;;;;;;6176263;23;20640;-57
2022/09/11 03:46:37;;;;;;;2.90;2.73;;;24.30;43.00;;;;;;6175361;23;20228;-57
2022/09/11 03:49:05;;;;;;;2.90;2.70;;;24.30;43.00;;;;;;6175324;23;23697;-57
2022/09/11 03:51:31;;;;;;;3.23;3.03;;;24.30;43.00;;;;;;6173207;23;20205;-59
2022/09/11 03:53:59;;;;;;;3.00;2.80;;;24.30;43.00;;;;;;6175966;23;20511;-58
2022/09/11 03:56:27;;;;;;;3.20;3.00;;;24.30;43.00;;;;;;6175764;23;20863;-59
2022/09/11 03:58:58;;;;;;;2.80;2.70;;;24.30;43.00;;;;;;6174950;23;20740;-58
2022/09/11 04:01:24;;;;;;;3.00;2.90;;;24.30;43.00;;;;;;6173903;23;20420;-58
2022/09/11 04:03:50;;;;;;;3.30;3.10;;;24.30;43.00;;;;;;6173258;23;20447;-60
2022/09/11 04:06:16;;;;;;;3.63;3.43;;;24.30;43.00;;;;;;6175711;23;20199;-58
2022/09/11 04:08:41;;;;;;;3.33;3.10;;;24.30;43.00;;;;;;6177364;23;20254;-61
2022/09/11 04:11:10;;;;;;;3.60;3.40;;;24.30;43.70;;;;;;6175645;23;20277;-58
2022/09/11 04:13:38;;;;;;;3.00;2.90;;;24.30;43.00;;;;;;6175287;23;20265;-58
2022/09/11 04:16:16;;;;;;;3.63;3.10;;;24.30;43.00;;;;;;6174588;23;20981;-58
2022/09/11 04:18:43;;;;;;;3.07;2.93;;;24.30;43.00;;;;;;6199996;23;20754;-59
2022/09/11 04:21:11;;;;;;;3.83;3.63;;;24.30;43.00;;;;;;6203572;23;20903;-60
2022/09/11 04:23:37;;;;;;;3.47;3.33;;;24.30;43.00;;;;;;6206048;23;20450;-58
2022/09/11 04:26:12;;;;;;;3.40;3.20;;;24.30;43.00;;;;;;6206518;23;20475;-59
2022/09/11 04:28:38;;;;;;;2.80;2.70;;;24.30;43.00;;;;;;6206162;23;20456;-58
2022/09/11 04:31:04;;;;;;;3.40;3.20;;;24.30;43.00;;;;;;6204963;23;20418;-57
2022/09/11 04:33:30;;;;;;;3.10;2.93;;;24.30;43.00;;;;;;6205849;23;20420;-58
2022/09/11 04:35:55;;;;;;;3.10;3.00;;;24.30;43.00;;;;;;6205014;23;20202;-58
2022/09/11 04:38:22;;;;;;;3.60;3.40;;;24.30;43.00;;;;;;6199716;23;20201;-59
2022/09/11 04:40:48;;;;;;;3.53;3.33;;;24.30;43.00;;;;;;6204352;23;20194;-58
2022/09/11 04:43:16;;;;;;;3.80;3.60;;;24.30;43.00;;;;;;6204523;23;20430;-59
2022/09/11 04:45:42;;;;;;;3.53;3.33;;;24.30;43.00;;;;;;6205816;23;20407;-58
2022/09/11 04:48:07;;;;;;;4.00;3.80;;;24.30;43.00;;;;;;6205004;23;20415;-58
2022/09/11 04:50:33;;;;;;;3.77;3.57;;;24.30;43.00;;;;;;6206226;23;20210;-57
2022/09/11 04:52:58;;;;;;;3.60;3.40;;;24.30;43.00;;;;;;6207309;23;20273;-59
2022/09/11 04:55:25;;;;;;;3.70;3.50;;;24.30;43.00;;;;;;6206030;23;20239;-58
2022/09/11 04:57:52;;;;;;;3.50;3.30;;;24.30;43.00;;;;;;6205289;23;20198;-59
2022/09/11 05:00:18;;;;;;;3.03;2.83;;;24.30;43.00;;;;;;6204948;23;20419;-58
2022/09/11 05:02:44;;;;;;;3.70;3.50;;;24.30;43.00;;;;;;6208032;23;20428;-60
2022/09/11 05:05:09;;;;;;;3.13;2.93;;;24.30;43.00;;;;;;6205946;23;20208;-61
2022/09/11 05:07:35;;;;;;;3.60;3.40;;;24.30;43.00;;;;;;6206063;23;20189;-58
2022/09/11 05:10:02;;;;;;;3.20;3.00;;;24.30;43.00;;;;;;6206049;23;20660;-57
2022/09/11 05:12:28;;;;;;;3.83;3.63;;;24.30;43.00;;;;;;6204820;23;20200;-58
2022/09/11 05:14:54;;;;;;;3.27;3.07;;;24.30;43.00;;;;;;6203100;23;20459;-61
2022/09/11 05:17:19;;;;;;;3.10;3.00;;;24.30;43.00;;;;;;6204604;23;20412;-58
2022/09/11 05:19:45;;;;;;;3.70;3.50;;;24.30;43.00;;;;;;6206692;23;20194;-60
2022/09/11 05:22:11;;;;;;;3.33;3.13;;;24.30;43.00;;;;;;6208005;23;20209;-59
2022/09/11 05:24:37;;;;;;;3.00;2.80;;;24.30;43.00;;;;;;6206104;23;20218;-58
2022/09/11 05:27:03;;;;;;;3.57;3.37;;;24.30;43.00;;;;;;6204250;23;20194;-58
2022/09/11 05:29:29;;;;;;;3.43;3.23;;;24.30;43.70;;;;;;6205816;23;20412;-58
2022/09/11 05:31:57;;;;;;;3.90;3.70;;;24.30;43.00;;;;;;6205689;23;20424;-59
2022/09/11 05:34:23;;;;;;;3.10;3.00;;;24.30;43.00;;;;;;6207056;23;20243;-58
2022/09/11 05:36:48;;;;;;;3.63;3.43;;;24.30;43.00;;;;;;6207594;23;21086;-59
2022/09/11 05:39:14;;;;;;;3.40;3.20;;;24.30;43.70;;;;;;6205897;23;20443;-58
2022/09/11 05:41:39;;;;;;;3.83;3.63;;;24.30;43.00;;;;;;6209731;23;20268;-60
2022/09/11 05:44:05;;;;;;;3.47;3.27;;;24.30;43.00;;;;;;6204692;23;20661;-58
2022/09/11 05:46:31;;;;;;;3.40;3.20;;;24.30;43.00;;;;;;6201716;23;20194;-60
2022/09/11 05:48:58;;;;;;;3.63;3.43;;;24.30;43.00;;;;;;6206554;23;20198;-62
2022/09/11 05:51:23;;;;;;;3.90;3.70;;;24.30;43.00;;;;;;6205207;23;20913;-59
2022/09/11 05:53:53;;;;;;;3.60;3.40;;;24.30;43.00;;;;;;6203620;23;20462;-58
2022/09/11 05:56:21;;;;;;;3.60;3.40;;;24.30;43.00;;;;;;6205642;23;20201;-58
2022/09/11 05:58:48;;;;;;;3.93;3.73;;;24.30;43.00;;;;;;6178766;23;20694;-58
2022/09/11 06:01:16;;;;;;;3.50;3.30;;;24.30;43.00;;;;;;6208020;23;20420;-59
2022/09/11 06:03:42;;;;;;;3.40;3.20;;;24.30;43.00;;;;;;6206081;23;20424;-57
2022/09/11 06:06:10;;;;;;;4.10;3.90;;;24.30;43.00;;;;;;6205589;23;20419;-56
2022/09/11 06:08:38;;;;;;;3.30;3.10;;;24.30;43.00;;;;;;6205874;23;20419;-57
2022/09/11 06:11:06;;;;;;;3.33;3.13;;;24.30;43.00;;;;;;6206767;23;23395;-58
2022/09/11 06:13:34;;;;;;;3.43;3.23;;;24.30;43.00;;;;;;6204956;23;20415;-61
2022/09/11 06:16:01;;;;;;;3.70;3.50;;;24.30;43.00;;;;;;6206279;23;20471;-58
2022/09/11 06:18:28;;;;;;;3.63;3.43;;;24.30;43.00;;;;;;6205926;23;21147;-57
2022/09/11 06:21:01;;;;;;;3.97;3.77;;;24.30;43.00;;;;;;6207090;23;20415;-59
2022/09/11 06:23:27;;;;;;;3.53;3.33;;;24.30;43.00;;;;;;6206002;23;20434;-58
2022/09/11 06:26:01;;;;;;;3.73;3.53;;;24.30;43.00;;;;;;6208259;23;20514;-58
2022/09/11 06:28:26;;;;;;;4.07;3.87;;;24.30;43.00;;;;;;6205695;23;20206;-57
2022/09/11 06:30:52;;;;;;;3.90;3.70;;;24.30;43.00;;;;;;6207144;23;20415;-60
2022/09/11 06:33:19;;;;;;;3.70;3.50;;;24.30;43.00;;;;;;6206143;23;20265;-59
2022/09/11 06:35:56;;;;;;;3.77;3.57;;;24.30;43.00;;;;;;6207018;23;20211;-58
2022/09/11 06:38:22;;;;;;;3.60;3.40;;;24.30;43.00;;;;;;6201479;23;20416;-62
2022/09/11 06:40:47;;;;;;;3.60;3.40;;;24.30;43.00;;;;;;6204392;23;20612;-57
2022/09/11 06:43:13;;;;;;;3.37;3.17;;;24.30;43.00;;;;;;6208655;23;20214;-58
2022/09/11 06:45:40;;;;;;;3.70;3.50;;;24.30;43.00;;;;;;6188669;23;20234;-59
2022/09/11 06:48:06;;;;;;;3.63;3.43;;;24.30;43.00;;;;;;6176836;23;20193;-58
2022/09/11 06:50:39;;;;;;;3.40;3.20;;;24.30;43.00;;;;;;6176723;23;20827;-58
2022/09/11 06:53:05;;;;;;;3.60;3.40;;;24.30;43.00;;;;;;6175789;23;20201;-58
2022/09/11 06:55:32;;;;;;;3.60;3.40;;;24.30;43.00;;;;;;6175746;23;20423;-59
2022/09/11 06:57:58;;;;;;;4.50;4.17;;;24.30;43.00;;;;;;6174327;22;20890;-57
2022/09/11 07:00:24;;;;;;;3.93;3.73;;;24.30;43.00;;;;;;6194773;23;20420;-60
2022/09/11 07:02:51;;;;;;;4.10;3.00;;;24.30;43.00;;;;;;6200284;23;20204;-59
2022/09/11 07:05:17;;;;;;;3.87;3.67;;;24.30;43.00;;;;;;6202649;23;20193;-59
2022/09/11 07:07:43;;;;;;;3.27;3.07;;;24.30;43.00;;;;;;6206384;23;20420;-59
2022/09/11 07:10:09;;;;;;;4.17;3.87;;;24.30;43.00;;;;;;6194334;23;20236;-58
2022/09/11 07:12:37;;;;;;;4.10;3.90;;;24.30;43.00;;;;;;6173946;23;20190;-59
2022/09/11 07:15:07;;;;;;;4.97;3.67;;;24.30;43.00;;;;;;6202272;23;20522;-62
2022/09/11 07:17:32;;;;;;;4.63;4.23;;;24.30;43.00;;;;;;6164538;23;20421;-61
2022/09/11 07:19:58;;;;;;;3.50;3.20;;;24.30;43.00;;;;;;6199186;23;20965;-58
2022/09/11 07:22:23;;;;;;;4.00;3.67;;;24.30;43.00;;;;;;6204078;23;20229;-59
2022/09/11 07:24:51;;;;;;;3.90;3.70;;;24.30;43.00;;;;;;6192380;23;20193;-58
2022/09/11 07:27:18;;;;;;;4.00;3.67;;;24.30;43.00;;;;;;6177252;23;20209;-59
2022/09/11 07:29:43;;;;;;;3.90;3.60;;;24.30;43.00;;;;;;6177955;23;20471;-58
2022/09/11 07:32:09;;;;;;;3.80;3.50;;;24.30;43.00;;;;;;6176188;23;21056;-58
2022/09/11 07:34:34;;;;;;;3.67;3.37;;;24.30;43.00;;;;;;6174415;23;20195;-58
2022/09/11 07:37:00;;;;;;;3.57;3.37;;;24.30;43.00;;;;;;6174301;23;20252;-58
2022/09/11 07:39:25;;;;;;;3.43;3.23;;;24.30;43.00;;;;;;6173696;23;20262;-58
2022/09/11 07:41:51;;;;;;;3.63;3.43;;;24.30;43.00;;;;;;6175464;23;20202;-58
2022/09/11 07:44:17;;;;;;;3.57;3.37;;;24.30;43.00;;;;;;6200876;23;20527;-59
2022/09/11 07:46:42;;;;;;;4.33;3.27;;;24.30;43.00;;;;;;6207127;23;20186;-58
2022/09/11 07:49:09;;;;;;;3.60;3.40;;;24.30;43.00;;;;;;6203500;23;20426;-58
2022/09/11 07:51:36;;;;;;;3.93;3.47;;;24.30;43.00;;;;;;6203436;23;20252;-57
2022/09/11 07:54:02;;;;;;;4.10;3.80;;;24.30;43.00;;;;;;6203267;23;20419;-58
2022/09/11 07:56:27;;;;;;;4.37;3.40;;;24.30;43.00;;;;;;6204653;23;20415;-59
2022/09/11 07:58:54;;;;;;;3.80;3.60;;;24.30;43.00;;;;;;6206371;23;20277;-59
2022/09/11 08:01:22;;;;;;;6.03;3.83;;;24.30;43.00;;;;;;6203441;23;20277;-58
2022/09/11 08:03:53;;;;;;;4.30;4.00;;;24.30;43.00;;;;;;6202563;23;20485;-61
2022/09/11 08:06:18;;;;;;;4.33;3.93;;;24.30;43.70;;;;;;6204154;23;20418;-61
2022/09/11 08:08:44;;;;;;;4.20;4.00;;;24.30;43.00;;;;;;6205514;23;20741;-58
2022/09/11 08:11:16;;;;;;;4.00;3.60;;;24.30;43.00;;;;;;6204155;23;20193;-58
2022/09/11 08:13:42;;;;;;;3.57;3.37;;;24.30;43.00;;;;;;6181997;22;20278;-60
2022/09/11 08:16:07;;;;;;;4.03;3.70;;;24.30;43.00;;;;;;6184404;23;20456;-58
2022/09/11 08:18:34;;;;;;;4.00;3.70;;;24.30;43.00;;;;;;6183430;23;20195;-58
2022/09/11 08:21:02;;;;;;;4.00;3.60;;;24.30;43.00;;;;;;6173194;23;20234;-58
2022/09/11 08:23:30;;;;;;;4.00;3.67;;;24.30;43.00;;;;;;6174726;23;20456;-59
2022/09/11 08:26:01;;;;;;;4.80;3.60;;;24.30;43.00;;;;;;6175402;23;20415;-58
2022/09/11 08:28:27;;;;;;;4.03;3.73;;;24.30;43.00;;;;;;6176721;23;20416;-58
2022/09/11 08:30:57;;;;;;;3.87;3.57;;;24.30;43.00;;;;;;6175747;23;20408;-58
2022/09/11 08:33:23;;;;;;;4.30;3.80;;;24.30;43.00;;;;;;6183027;23;20576;-59
2022/09/11 08:35:49;;;;;;;3.93;3.40;;;24.30;43.00;;;;;;6207672;23;20411;-60
2022/09/11 08:38:14;;;;;;;5.50;3.53;;;24.30;43.00;;;;;;6199920;23;20615;-59
2022/09/11 08:40:40;;;;;;;5.37;3.33;;;24.30;43.00;;;;;;6177680;23;20194;-59
2022/09/11 08:43:11;;;;;;;4.13;3.70;;;24.30;43.00;;;;;;6175954;23;20618;-59
2022/09/11 08:45:37;;;;;;;3.57;3.37;;;24.30;43.00;;;;;;6198728;23;20224;-60
2022/09/11 08:48:05;;;;;;;3.97;3.63;;;24.30;43.00;;;;;;6201975;23;20443;-58
2022/09/11 08:50:41;;;;;;;4.63;4.20;;;24.30;43.00;;;;;;6176642;23;20416;-58
2022/09/11 08:53:14;;;;;;;5.67;4.20;;;24.30;43.00;;;;;;6174253;23;20878;-61
2022/09/11 08:55:47;;;;;;;3.70;3.40;;;24.30;43.00;;;;;;6173253;23;20413;-58
2022/09/11 08:58:39;;;;;;;5.40;3.67;;;24.30;43.00;;;;;;6195107;23;20755;-60
2022/09/11 09:01:28;;;;;;;4.70;3.60;;;24.30;43.00;;;;;;6175204;23;20734;-59
2022/09/11 09:04:09;;;;;;;4.33;3.93;;;24.30;43.00;;;;;;6186655;23;20449;-59
2022/09/11 09:07:16;;;;;;;3.60;3.30;;;24.30;43.00;;;;;;6190742;22;20810;-60
2022/09/11 09:10:14;;;;;;;3.70;3.50;;;24.30;43.00;;;;;;6196083;23;20431;-58
2022/09/11 09:12:54;;;;;;;3.93;3.53;;;24.30;43.00;;;;;;6194656;23;20439;-58
2022/09/11 09:15:43;;;;;;;4.50;4.13;;;24.30;43.10;;;;;;6190563;23;20451;-58
2022/09/11 09:18:31;;;;;;;6.33;3.50;;;24.30;43.10;;;;;;6176155;23;20856;-58
2022/09/11 09:21:05;;;;;;;3.90;3.60;;;24.30;43.30;;;;;;6198673;23;20478;-57
2022/09/11 09:23:44;;;;;;;3.97;3.67;;;24.30;43.20;;;;;;6196629;23;20490;-59
2022/09/11 09:26:17;;;;;;;3.77;3.47;;;24.30;43.10;;;;;;6185835;23;20467;-58
2022/09/11 09:28:50;;;;;;;3.87;3.67;;;24.30;43.20;;;;;;6176072;23;20999;-58
2022/09/11 09:31:20;;;;;;;6.70;3.80;;;24.30;43.20;;;;;;6204607;23;20412;-58
2022/09/11 09:33:53;;;;;;;3.60;3.40;;;24.30;43.30;;;;;;6204484;23;20424;-60
2022/09/11 09:36:42;;;;;;;3.97;3.67;;;24.30;44.00;;;;;;6204740;23;20423;-59
2022/09/11 09:39:18;;;;;;;6.10;3.90;;;24.30;43.20;;;;;;6203578;23;20444;-59
2022/09/11 09:42:17;;;;;;;3.30;3.10;;;24.30;43.20;;;;;;6204312;23;20832;-58
2022/09/11 09:45:13;;;;;;;3.90;3.60;;;24.30;43.30;;;;;;6172942;23;20846;-57
2022/09/11 09:47:43;;;;;;;3.80;3.50;;;24.30;43.30;;;;;;6191436;22;20439;-59
2022/09/11 09:50:27;;;;;;;3.57;3.37;;;24.30;43.30;;;;;;6179517;23;20464;-60
2022/09/11 09:53:01;;;;;;;3.53;3.20;;;24.30;43.30;;;;;;6171693;23;20424;-64
2022/09/11 09:55:27;;;;;;;4.73;3.53;;;24.30;43.40;;;;;;6168833;23;20447;-60
2022/09/11 09:57:52;;;;;;;4.10;3.80;;;24.30;43.40;;;;;;6170913;23;20864;-59
2022/09/11 10:00:18;;;;;;;3.60;3.30;;;24.30;43.40;;;;;;6171190;23;20245;-58
2022/09/11 10:02:56;;;;;;;3.50;3.30;;;24.30;43.30;;;;;;6168290;23;20207;-62
2022/09/11 10:05:39;;;;;;;4.07;3.87;;;24.30;43.30;;;;;;6191145;23;20193;-59
2022/09/11 10:08:22;;;;;;;6.90;3.90;;;24.30;43.30;;;;;;6193848;23;20490;-60
2022/09/11 10:10:57;;;;;;;3.30;3.10;;;24.30;43.40;;;;;;6203240;23;20422;-64
2022/09/11 10:13:28;;;;;;;3.90;3.70;;;24.30;43.30;;;;;;6204808;23;20429;-58
2022/09/11 10:15:58;;;;;;;3.10;2.90;;;24.30;43.30;;;;;;6204119;23;20435;-60
2022/09/11 10:18:41;;;;;;;4.53;4.17;;;24.30;43.30;;;;;;6204786;23;20422;-63
2022/09/11 10:21:21;;;;;;;4.17;3.87;;;24.30;43.30;;;;;;6202983;23;20435;-59
2022/09/11 10:23:53;;;;;;;4.37;3.93;;;24.30;43.40;;;;;;6170365;23;20424;-58
2022/09/11 10:26:44;;;;;;;4.73;3.43;;;24.30;43.30;;;;;;6168311;23;20881;-59
2022/09/11 10:29:26;;;;;;;4.10;3.90;;;24.30;43.30;;;;;;6191514;23;20407;-60
2022/09/11 10:31:58;;;;;;;3.53;3.33;;;24.30;43.30;;;;;;6171198;23;20500;-59
2022/09/11 10:34:25;;;;;;;3.83;3.63;;;24.30;43.30;;;;;;6189335;23;20436;-59
2022/09/11 10:37:14;;;;;;;4.80;3.87;;;24.30;43.30;;;;;;6170955;23;20416;-59
2022/09/11 10:39:42;;;;;;;3.77;3.57;;;24.30;43.30;;;;;;6172229;23;20407;-63
2022/09/11 10:42:16;;;;;;;3.43;3.23;;;24.30;44.10;;;;;;6198893;23;20427;-57
2022/09/11 10:44:46;;;;;;;6.03;4.60;;;24.30;43.30;;;;;;6192021;23;20415;-58
2022/09/11 10:47:16;;;;;;;3.83;3.63;;;24.30;43.40;;;;;;6197550;23;20444;-58
2022/09/11 10:49:42;;;;;;;4.20;4.00;;;24.30;43.30;;;;;;6172464;22;20420;-61
2022/09/11 10:52:07;;;;;;;4.60;4.40;;;24.30;43.30;;;;;;6173250;23;20413;-63
2022/09/11 10:55:14;;;;;;;4.20;4.00;;;24.30;43.30;;;;;;6169889;23;20775;-58
2022/09/11 10:57:52;;;;;;;3.50;3.30;;;24.30;43.30;;;;;;6204919;23;20248;-58
2022/09/11 11:00:29;;;;;;;4.27;4.07;;;24.30;43.40;;;;;;6205489;23;20419;-58
2022/09/11 11:03:05;;;;;;;3.77;3.57;;;24.30;43.30;;;;;;6201891;23;20917;-58
2022/09/11 11:05:49;;;;;;;3.80;3.60;;;24.30;43.50;;;;;;6204786;23;20415;-57
2022/09/11 11:08:36;;;;;;;3.80;3.60;;;24.30;43.30;;;;;;6198251;23;20486;-59
2022/09/11 11:11:13;;;;;;;3.90;3.70;;;24.30;43.40;;;;;;6203320;23;20428;-62
2022/09/11 11:13:56;;;;;;;4.07;3.77;;;24.30;43.40;;;;;;6198336;23;20420;-61
2022/09/11 11:16:38;;;;;;;3.70;3.50;;;24.30;43.40;;;;;;6189572;23;20432;-58
2022/09/11 11:19:28;;;;;;;4.27;3.83;;;24.30;43.40;;;;;;6174890;23;20460;-59
2022/09/11 11:21:58;;;;;;;4.30;4.10;;;24.30;43.30;;;;;;6203398;23;20898;-59
2022/09/11 11:24:53;;;;;;;4.13;3.80;;;24.30;43.50;;;;;;6206429;23;20510;-59
2022/09/11 11:27:56;;;;;;;4.17;3.77;;;24.30;43.40;;;;;;6191141;23;20412;-59
2022/09/11 11:30:35;;;;;;;4.23;3.93;;;24.30;43.50;;;;;;6174309;23;20423;-61
2022/09/11 11:33:12;;;;;;;4.10;3.87;;;24.30;43.40;;;;;;6173020;23;20479;-58
2022/09/11 11:35:56;;;;;;;4.17;3.80;;;24.30;43.50;;;;;;6172702;23;20514;-60
2022/09/11 11:38:38;;;;;;;4.20;3.90;;;24.30;43.50;;;;;;6200134;23;20505;-63
2022/09/11 11:41:29;;;;;;;4.37;4.07;;;24.30;43.40;;;;;;6205247;23;20416;-58
2022/09/11 11:43:57;;;;;;;3.87;3.67;;;24.30;43.40;;;;;;6182405;23;20463;-57
2022/09/11 11:46:28;;;;;;;4.30;4.10;;;24.30;43.50;;;;;;6177722;23;20438;-61
2022/09/11 11:48:59;;;;;;;4.70;3.97;;;24.30;43.50;;;;;;6202876;23;20415;-60
2022/09/11 11:51:30;;;;;;;4.13;3.93;;;24.30;43.50;;;;;;6202426;23;20426;-59
2022/09/11 11:54:22;;;;;;;4.20;4.00;;;24.30;43.60;;;;;;6207841;23;20415;-60
2022/09/11 11:56:56;;;;;;;4.47;4.00;;;24.30;43.50;;;;;;6198696;23;20427;-60
2022/09/11 11:59:30;;;;;;;4.10;3.90;;;24.30;43.50;;;;;;6194303;23;20435;-59
2022/09/11 12:02:07;;;;;;;5.37;4.87;;;24.30;43.50;;;;;;6176782;23;20555;-58
2022/09/11 12:04:54;;;;;;;4.30;4.03;;;24.30;43.50;;;;;;6177746;23;20424;-59
2022/09/11 12:07:29;;;;;;;4.40;4.10;;;24.30;43.50;;;;;;6192800;23;20977;-57
2022/09/11 12:09:57;;;;;;;4.30;4.10;;;24.30;43.50;;;;;;6177669;23;20453;-60
2022/09/11 12:12:26;;;;;;;4.60;4.30;;;24.30;43.60;;;;;;6202347;23;20423;-58
2022/09/11 12:14:55;;;;;;;4.50;4.20;;;24.30;43.60;;;;;;6207336;23;20550;-58
2022/09/11 12:17:29;;;;;;;4.57;4.20;;;24.30;43.60;;;;;;6205388;23;20415;-59
2022/09/11 12:20:33;;;;;;;4.30;4.10;;;24.30;43.50;;;;;;6207882;23;20977;-57
2022/09/11 12:22:59;;;;;;;4.10;3.90;;;24.30;43.60;;;;;;6197097;23;20442;-58
2022/09/11 12:25:28;;;;;;;4.47;4.23;;;24.30;43.60;;;;;;6189278;23;20416;-58
2022/09/11 12:28:22;;;;;;;4.33;4.13;;;24.30;43.60;;;;;;6176196;23;20912;-59
2022/09/11 12:31:07;;;;;;;5.03;4.63;;;24.30;43.60;;;;;;6175457;23;20429;-60
2022/09/11 12:33:47;;;;;;;4.33;4.03;;;24.30;43.60;;;;;;6176585;23;20463;-57
2022/09/11 12:36:29;;;;;;;4.00;3.80;;;24.30;43.70;;;;;;6194464;23;21096;-60
2022/09/11 12:38:59;;;;;;;3.67;3.47;;;24.30;43.70;;;;;;6185363;23;20419;-58
2022/09/11 12:41:33;;;;;;;4.13;3.93;;;24.30;43.60;;;;;;6176471;23;20428;-61
2022/09/11 12:44:00;;;;;;;4.53;4.23;;;24.30;43.60;;;;;;6180562;23;21036;-60
2022/09/11 12:46:26;;;;;;;3.83;3.60;;;24.30;43.70;;;;;;6205769;23;20502;-58
2022/09/11 12:49:16;;;;;;;3.93;3.73;;;24.30;43.60;;;;;;6205842;23;20507;-58
2022/09/11 12:51:54;;;;;;;4.57;4.30;;;24.30;43.60;;;;;;6199961;23;20201;-59
2022/09/11 12:54:37;;;;;;;4.20;4.00;;;24.30;43.60;;;;;;6174992;22;20420;-60
2022/09/11 12:57:06;;;;;;;4.80;4.50;;;24.30;43.60;;;;;;6171315;23;20708;-58
2022/09/11 12:59:33;;;;;;;4.47;4.27;;;24.30;43.70;;;;;;6177028;23;20412;-57
2022/09/11 13:01:59;;;;;;;4.00;3.80;;;24.30;43.70;;;;;;6176448;23;20750;-58
2022/09/11 13:04:29;;;;;;;3.83;3.63;;;24.30;43.60;;;;;;6205343;23;20712;-58
2022/09/11 13:07:02;;;;;;;4.37;4.17;;;24.30;43.70;;;;;;6204144;23;20407;-59
2022/09/11 13:09:32;;;;;;;3.60;3.40;;;24.30;43.60;;;;;;6205290;23;20481;-56
2022/09/11 13:12:16;;;;;;;4.70;4.40;;;24.30;43.70;;;;;;6206108;23;20469;-64